Time;durP1;ratioP1;P1;durP2;ratioP2;P2;SDS_P1;SDS_P2;PMS_P1;PMS_P2;Temp;Humidity;BMP_temperature;BMP_pressure;BME280_temperature;BME280_humidity;BME280_pressure;Samples;Min_cycle;Max_cycle;Signal;HPM_P1;HPM_P2
2023/06/15 00:02:11;;;;;;;;;;;;;;;;;;5033367;28;19921;-65
2023/06/15 00:04:37;;;;;;;;;;;;;;;;;;5033202;28;19927;-66
2023/06/15 00:07:03;;;;;;;;;;;;;;;;;;5033663;28;20328;-65
2023/06/15 00:09:29;;;;;;;;;;;;;;;;;;5031927;28;19925;-65
2023/06/15 00:11:54;;;;;;;;;;;;;;;;;;5033416;28;20444;-66
2023/06/15 00:14:20;;;;;;;;;;;;;;;;;;5033612;28;19968;-65
2023/06/15 00:16:47;;;;;;;;;;;;;;;;;;5033261;28;20456;-66
2023/06/15 00:19:13;;;;;;;;;;;;;;;;;;5033108;28;20375;-65
2023/06/15 00:21:40;;;;;;;;;;;;;;;;;;5033124;28;19921;-65
2023/06/15 00:24:06;;;;;;;;;;;;;;;;;;5021596;28;19941;-65
2023/06/15 00:26:32;;;;;;;;;;;;;;;;;;5028191;28;19921;-65
2023/06/15 00:28:58;;;;;;;;;;;;;;;;;;5031576;28;19921;-65
2023/06/15 00:31:24;;;;;;;;;;;;;;;;;;5031386;28;19971;-65
2023/06/15 00:33:51;;;;;;;;;;;;;;;;;;5008497;28;19921;-65
2023/06/15 00:36:17;;;;;;;;;;;;;;;;;;5013690;28;19996;-65
2023/06/15 00:38:43;;;;;;;;;;;;;;;;;;5030388;28;19922;-65
2023/06/15 00:41:09;;;;;;;;;;;;;;;;;;5032283;28;19928;-65
2023/06/15 00:43:35;;;;;;;;;;;;;;;;;;5032902;28;19936;-65
2023/06/15 00:46:01;;;;;;;;;;;;;;;;;;5025379;28;19925;-65
2023/06/15 00:48:27;;;;;;;;;;;;;;;;;;5013135;28;20010;-65
2023/06/15 00:50:53;;;;;;;;;;;;;;;;;;5020461;28;20072;-66
2023/06/15 00:53:19;;;;;;;;;;;;;;;;;;5013891;28;19936;-66
2023/06/15 00:55:45;;;;;;;;;;;;;;;;;;5032888;28;19929;-66
2023/06/15 00:58:11;;;;;;;;;;;;;;;;;;5029826;28;19929;-66
2023/06/15 01:00:37;;;;;;;;;;;;;;;;;;5012700;28;19921;-66
2023/06/15 01:03:04;;;;;;;;;;;;;;;;;;4994751;28;19925;-66
2023/06/15 01:05:34;;;;;;;;;;;;;;;;;;5012904;28;19921;-66
2023/06/15 01:08:04;;;;;;;;;;;;;;;;;;5020990;28;20337;-66
2023/06/15 01:10:31;;;;;;;;;;;;;;;;;;5014489;28;20728;-66
2023/06/15 01:12:57;;;;;;;;;;;;;;;;;;5032191;28;19921;-66
2023/06/15 01:15:23;;;;;;;;;;;;;;;;;;5031300;28;19925;-66
2023/06/15 01:17:53;;;;;;;;;;;;;;;;;;5014435;28;20401;-66
2023/06/15 01:20:21;;;;;;;;;;;;;;;;;;5013605;28;19951;-66
2023/06/15 01:22:49;;;;;;;;;;;;;;;;;;5031582;28;20362;-65
2023/06/15 01:25:15;;;;;;;;;;;;;;;;;;5031857;28;19925;-66
2023/06/15 01:27:41;;;;;;;;;;;;;;;;;;5019107;28;19972;-66
2023/06/15 01:30:07;;;;;;;;;;;;;;;;;;5012230;28;19925;-66
2023/06/15 01:32:33;;;;;;;;;;;;;;;;;;5029844;28;19924;-66
2023/06/15 01:34:59;;;;;;;;;;;;;;;;;;5012415;28;19925;-66
2023/06/15 01:37:25;;;;;;;;;;;;;;;;;;5027002;28;19925;-64
2023/06/15 01:39:51;;;;;;;;;;;;;;;;;;5026763;28;20000;-64
2023/06/15 01:42:17;;;;;;;;;;;;;;;;;;5031576;28;19947;-64
2023/06/15 01:44:44;;;;;;;;;;;;;;;;;;5031883;28;19967;-65
2023/06/15 01:47:11;;;;;;;;;;;;;;;;;;5013902;28;19921;-65
2023/06/15 01:49:37;;;;;;;;;;;;;;;;;;5029992;28;19972;-65
2023/06/15 01:52:03;;;;;;;;;;;;;;;;;;5031484;28;19994;-65
2023/06/15 01:54:28;;;;;;;;;;;;;;;;;;5031749;28;19966;-65
2023/06/15 01:56:55;;;;;;;;;;;;;;;;;;5031808;28;19921;-65
2023/06/15 01:59:20;;;;;;;;;;;;;;;;;;5031353;28;19936;-65
2023/06/15 02:01:46;;;;;;;;;;;;;;;;;;4997403;28;19921;-65
2023/06/15 02:04:12;;;;;;;;;;;;;;;;;;5010542;28;19937;-65
2023/06/15 02:06:38;;;;;;;;;;;;;;;;;;5012610;28;19925;-65
2023/06/15 02:09:04;;;;;;;;;;;;;;;;;;5031616;28;19979;-65
2023/06/15 02:11:30;;;;;;;;;;;;;;;;;;5014078;28;19960;-65
2023/06/15 02:13:59;;;;;;;;;;;;;;;;;;5031407;28;19983;-65
2023/06/15 02:16:26;;;;;;;;;;;;;;;;;;5031310;28;19971;-65
2023/06/15 02:18:52;;;;;;;;;;;;;;;;;;5029554;28;20351;-65
2023/06/15 02:21:18;;;;;;;;;;;;;;;;;;5031487;28;19921;-65
2023/06/15 02:23:45;;;;;;;;;;;;;;;;;;5030911;28;19928;-65
2023/06/15 02:26:11;;;;;;;;;;;;;;;;;;5030007;28;19921;-65
2023/06/15 02:28:37;;;;;;;;;;;;;;;;;;5033228;28;20289;-64
2023/06/15 02:31:03;;;;;;;;;;;;;;;;;;5032838;28;19929;-64
2023/06/15 02:33:29;;;;;;;;;;;;;;;;;;5012982;28;19922;-64
2023/06/15 02:35:55;;;;;;;;;;;;;;;;;;5033372;28;20382;-65
2023/06/15 02:38:20;;;;;;;;;;;;;;;;;;5029651;28;19928;-65
2023/06/15 02:40:46;;;;;;;;;;;;;;;;;;5030421;28;19925;-65
2023/06/15 02:43:12;;;;;;;;;;;;;;;;;;5033307;28;19921;-65
2023/06/15 02:45:38;;;;;;;;;;;;;;;;;;5030321;28;19966;-65
2023/06/15 02:48:05;;;;;;;;;;;;;;;;;;5031664;28;20535;-65
2023/06/15 02:50:31;;;;;;;;;;;;;;;;;;5031771;28;19933;-66
2023/06/15 02:52:57;;;;;;;;;;;;;;;;;;5032309;28;19968;-65
2023/06/15 02:55:23;;;;;;;;;;;;;;;;;;5032370;28;19925;-65
2023/06/15 02:57:48;;;;;;;;;;;;;;;;;;5032404;28;19932;-65
2023/06/15 03:00:17;;;;;;;;;;;;;;;;;;5033240;28;19967;-65
2023/06/15 03:02:44;;;;;;;;;;;;;;;;;;5013372;28;20396;-65
2023/06/15 03:05:10;;;;;;;;;;;;;;;;;;5033876;28;19925;-65
2023/06/15 03:07:36;;;;;;;;;;;;;;;;;;5032615;28;20362;-64
2023/06/15 03:10:02;;;;;;;;;;;;;;;;;;5032635;28;19921;-65
2023/06/15 03:12:28;;;;;;;;;;;;;;;;;;5032179;28;20036;-65
2023/06/15 03:14:54;;;;;;;;;;;;;;;;;;5032994;28;20386;-64
2023/06/15 03:17:21;;;;;;;;;;;;;;;;;;5030433;28;19927;-65
2023/06/15 03:19:47;;;;;;;;;;;;;;;;;;5032288;28;19925;-65
2023/06/15 03:22:13;;;;;;;;;;;;;;;;;;5026036;28;19963;-68
2023/06/15 03:24:39;;;;;;;;;;;;;;;;;;5025094;28;19925;-65
2023/06/15 03:27:06;;;;;;;;;;;;;;;;;;5032158;28;19933;-65
2023/06/15 03:29:36;;;;;;;;;;;;;;;;;;5033690;28;20290;-66
2023/06/15 03:32:02;;;;;;;;;;;;;;;;;;5014984;28;20398;-66
2023/06/15 03:34:28;;;;;;;;;;;;;;;;;;5031800;28;19935;-65
2023/06/15 03:36:54;;;;;;;;;;;;;;;;;;5033968;28;19921;-65
2023/06/15 03:39:20;;;;;;;;;;;;;;;;;;5011894;28;19921;-65
2023/06/15 03:41:46;;;;;;;;;;;;;;;;;;5028482;28;19952;-65
2023/06/15 03:44:12;;;;;;;;;;;;;;;;;;5028071;28;19921;-65
2023/06/15 03:46:38;;;;;;;;;;;;;;;;;;5015061;28;19989;-65
2023/06/15 03:49:04;;;;;;;;;;;;;;;;;;5033789;28;20020;-65
2023/06/15 03:51:29;;;;;;;;;;;;;;;;;;5015743;28;19933;-65
2023/06/15 03:53:55;;;;;;;;;;;;;;;;;;5032297;28;19929;-65
2023/06/15 03:56:21;;;;;;;;;;;;;;;;;;5032139;28;19944;-65
2023/06/15 03:58:47;;;;;;;;;;;;;;;;;;5033043;28;20458;-65
2023/06/15 04:01:13;;;;;;;;;;;;;;;;;;5032712;28;19925;-64
2023/06/15 04:03:39;;;;;;;;;;;;;;;;;;5033143;28;19928;-65
2023/06/15 04:06:05;;;;;;;;;;;;;;;;;;5033834;28;19921;-65
2023/06/15 04:08:31;;;;;;;;;;;;;;;;;;5031723;28;19924;-65
2023/06/15 04:10:57;;;;;;;;;;;;;;;;;;5033534;28;19932;-65
2023/06/15 04:13:23;;;;;;;;;;;;;;;;;;5015288;28;20389;-65
2023/06/15 04:15:48;;;;;;;;;;;;;;;;;;5028802;28;19921;-65
2023/06/15 04:18:14;;;;;;;;;;;;;;;;;;5018475;28;20569;-65
2023/06/15 04:20:40;;;;;;;;;;;;;;;;;;5012743;28;19925;-65
2023/06/15 04:23:06;;;;;;;;;;;;;;;;;;5019275;28;20507;-65
2023/06/15 04:25:35;;;;;;;;;;;;;;;;;;5016142;28;19927;-65
2023/06/15 04:28:02;;;;;;;;;;;;;;;;;;5013765;28;19921;-65
2023/06/15 04:30:28;;;;;;;;;;;;;;;;;;5023220;28;19925;-65
2023/06/15 04:32:59;;;;;;;;;;;;;;;;;;5028686;28;19925;-65
2023/06/15 04:35:28;;;;;;;;;;;;;;;;;;5033137;28;19929;-65
2023/06/15 04:37:56;;;;;;;;;;;;;;;;;;5032714;28;19936;-65
2023/06/15 04:40:22;;;;;;;;;;;;;;;;;;5031727;28;19936;-65
2023/06/15 04:42:48;;;;;;;;;;;;;;;;;;5026244;28;19921;-65
2023/06/15 04:45:14;;;;;;;;;;;;;;;;;;5032788;28;19921;-65
2023/06/15 04:47:42;;;;;;;;;;;;;;;;;;4998773;28;19921;-65
2023/06/15 04:50:07;;;;;;;;;;;;;;;;;;5029126;28;19921;-65
2023/06/15 04:52:34;;;;;;;;;;;;;;;;;;5032597;28;19925;-65
2023/06/15 04:55:00;;;;;;;;;;;;;;;;;;5032497;28;19976;-65
2023/06/15 04:57:26;;;;;;;;;;;;;;;;;;5027860;28;19960;-65
2023/06/15 04:59:52;;;;;;;;;;;;;;;;;;5012704;28;20035;-65
2023/06/15 05:02:18;;;;;;;;;;;;;;;;;;5018515;28;20458;-65
2023/06/15 05:04:43;;;;;;;;;;;;;;;;;;5032518;28;19932;-66
2023/06/15 05:07:09;;;;;;;;;;;;;;;;;;5032157;28;19928;-65
2023/06/15 05:09:35;;;;;;;;;;;;;;;;;;5014676;28;19932;-65
2023/06/15 05:12:01;;;;;;;;;;;;;;;;;;5030877;28;20264;-67
2023/06/15 05:14:27;;;;;;;;;;;;;;;;;;5032509;28;19928;-65
2023/06/15 05:16:53;;;;;;;;;;;;;;;;;;5032472;28;19921;-65
2023/06/15 05:19:20;;;;;;;;;;;;;;;;;;5032239;28;19925;-65
2023/06/15 05:21:46;;;;;;;;;;;;;;;;;;5032122;28;19925;-65
2023/06/15 05:24:12;;;;;;;;;;;;;;;;;;5028743;28;19928;-65
2023/06/15 05:26:38;;;;;;;;;;;;;;;;;;5028372;28;19927;-65
2023/06/15 05:29:04;;;;;;;;;;;;;;;;;;5011205;28;19925;-65
2023/06/15 05:31:29;;;;;;;;;;;;;;;;;;5016345;28;20402;-65
2023/06/15 05:33:55;;;;;;;;;;;;;;;;;;5011901;28;19965;-65
2023/06/15 05:36:22;;;;;;;;;;;;;;;;;;5012278;28;19922;-65
2023/06/15 05:38:47;;;;;;;;;;;;;;;;;;5012456;28;19932;-65
2023/06/15 05:41:13;;;;;;;;;;;;;;;;;;5024327;28;19925;-65
2023/06/15 05:43:39;;;;;;;;;;;;;;;;;;5021839;28;20342;-66
2023/06/15 05:46:05;;;;;;;;;;;;;;;;;;5014334;28;19933;-66
2023/06/15 05:48:31;;;;;;;;;;;;;;;;;;5013020;28;20395;-64
2023/06/15 05:50:57;;;;;;;;;;;;;;;;;;5014603;28;19925;-64
2023/06/15 05:53:23;;;;;;;;;;;;;;;;;;5031809;28;20051;-65
2023/06/15 05:55:49;;;;;;;;;;;;;;;;;;5012300;28;19925;-65
2023/06/15 05:58:15;;;;;;;;;;;;;;;;;;5031123;28;19978;-65
2023/06/15 06:00:41;;;;;;;;;;;;;;;;;;5025741;28;19922;-65
2023/06/15 06:03:06;;;;;;;;;;;;;;;;;;5012712;28;20555;-65
2023/06/15 06:05:32;;;;;;;;;;;;;;;;;;5027644;28;20055;-65
2023/06/15 06:07:58;;;;;;;;;;;;;;;;;;5020843;28;19925;-65
2023/06/15 06:10:24;;;;;;;;;;;;;;;;;;5023358;28;20287;-65
2023/06/15 06:12:50;;;;;;;;;;;;;;;;;;5031332;28;19999;-65
2023/06/15 06:15:16;;;;;;;;;;;;;;;;;;5026322;28;20302;-65
2023/06/15 06:17:43;;;;;;;;;;;;;;;;;;5029457;28;19959;-65
2023/06/15 06:20:09;;;;;;;;;;;;;;;;;;5025164;28;19967;-65
2023/06/15 06:22:35;;;;;;;;;;;;;;;;;;5025259;28;20433;-65
2023/06/15 06:25:01;;;;;;;;;;;;;;;;;;5014952;28;19921;-65
2023/06/15 06:27:27;;;;;;;;;;;;;;;;;;5011704;28;20437;-65
2023/06/15 06:29:53;;;;;;;;;;;;;;;;;;5011759;28;19922;-65
2023/06/15 06:32:20;;;;;;;;;;;;;;;;;;5012365;28;19929;-65
2023/06/15 06:34:46;;;;;;;;;;;;;;;;;;5031122;28;19932;-66
2023/06/15 06:37:12;;;;;;;;;;;;;;;;;;5031379;28;19921;-65
2023/06/15 06:39:38;;;;;;;;;;;;;;;;;;5025871;28;19925;-65
2023/06/15 06:42:03;;;;;;;;;;;;;;;;;;5030462;28;20437;-66
2023/06/15 06:44:29;;;;;;;;;;;;;;;;;;5025648;28;19922;-65
2023/06/15 06:46:56;;;;;;;;;;;;;;;;;;5010345;28;19925;-65
2023/06/15 06:49:22;;;;;;;;;;;;;;;;;;5030267;28;19925;-65
2023/06/15 06:51:48;;;;;;;;;;;;;;;;;;5012399;28;19933;-65
2023/06/15 06:54:13;;;;;;;;;;;;;;;;;;5025868;28;20552;-65
2023/06/15 06:56:39;;;;;;;;;;;;;;;;;;5031412;28;19975;-65
2023/06/15 06:59:05;;;;;;;;;;;;;;;;;;5031345;28;19929;-65
2023/06/15 07:01:31;;;;;;;;;;;;;;;;;;5029563;28;19983;-65
2023/06/15 07:03:57;;;;;;;;;;;;;;;;;;5028240;28;19921;-65
2023/06/15 07:06:23;;;;;;;;;;;;;;;;;;5030843;28;19924;-65
2023/06/15 07:08:49;;;;;;;;;;;;;;;;;;5014205;28;19929;-65
2023/06/15 07:11:15;;;;;;;;;;;;;;;;;;5002310;28;20271;-66
2023/06/15 07:13:41;;;;;;;;;;;;;;;;;;5020102;28;19922;-65
2023/06/15 07:16:07;;;;;;;;;;;;;;;;;;5031561;28;20359;-65
2023/06/15 07:18:33;;;;;;;;;;;;;;;;;;5030160;28;19921;-65
2023/06/15 07:20:59;;;;;;;;;;;;;;;;;;5030358;28;20053;-65
2023/06/15 07:23:25;;;;;;;;;;;;;;;;;;5014842;28;19989;-65
2023/06/15 07:25:51;;;;;;;;;;;;;;;;;;5031293;28;19933;-65
2023/06/15 07:28:17;;;;;;;;;;;;;;;;;;5032397;28;19921;-66
2023/06/15 07:30:43;;;;;;;;;;;;;;;;;;5034060;28;20267;-66
2023/06/15 07:33:09;;;;;;;;;;;;;;;;;;5033603;28;19937;-66
2023/06/15 07:35:35;;;;;;;;;;;;;;;;;;5026806;28;19932;-66
2023/06/15 07:38:01;;;;;;;;;;;;;;;;;;5032058;28;19921;-66
2023/06/15 07:40:27;;;;;;;;;;;;;;;;;;5033796;28;20612;-66
2023/06/15 07:42:53;;;;;;;;;;;;;;;;;;5032941;28;19929;-66
2023/06/15 07:45:19;;;;;;;;;;;;;;;;;;5031683;28;19991;-66
2023/06/15 07:47:45;;;;;;;;;;;;;;;;;;5028791;28;20342;-66
2023/06/15 07:50:11;;;;;;;;;;;;;;;;;;4999554;28;19925;-66
2023/06/15 07:52:37;;;;;;;;;;;;;;;;;;5016142;28;19925;-66
2023/06/15 07:55:03;;;;;;;;;;;;;;;;;;5033849;28;19990;-66
2023/06/15 07:57:29;;;;;;;;;;;;;;;;;;5033594;28;19921;-66
2023/06/15 07:59:55;;;;;;;;;;;;;;;;;;5020884;28;19963;-66
2023/06/15 08:02:21;;;;;;;;;;;;;;;;;;5020128;28;19964;-66
2023/06/15 08:04:46;;;;;;;;;;;;;;;;;;5033770;28;19951;-66
2023/06/15 08:07:12;;;;;;;;;;;;;;;;;;5087965;23;19925;-66
2023/06/15 08:09:38;;;;;;;;;;;;;;;;;;5072977;28;19978;-67
2023/06/15 08:12:04;;;;;;;;;;;;;;;;;;5073154;28;19924;-66
2023/06/15 08:14:30;;;;;;;;;;;;;;;;;;5073083;28;19977;-66
2023/06/15 08:16:56;;;;;;;;;;;;;;;;;;5071811;28;19929;-66
2023/06/15 08:19:22;;;;;;;;;;;;;;;;;;5070557;28;19970;-66
2023/06/15 08:21:48;;;;;;;;;;;;;;;;;;5073489;28;20246;-66
2023/06/15 08:24:14;;;;;;;;;;;;;;;;;;5072885;28;19946;-66
2023/06/15 08:26:42;;;;;;;;;;;;;;;;;;5055495;28;19920;-66
2023/06/15 08:29:08;;;;;;;;;;;;;;;;;;5055308;28;19921;-66
2023/06/15 08:31:35;;;;;;;;;;;;;;;;;;5073033;28;20408;-65
2023/06/15 08:34:00;;;;;;;;;;;;;;;;;;5065104;28;19925;-65
2023/06/15 08:36:28;;;;;;;;;;;;;;;;;;5059489;28;19924;-65
2023/06/15 08:38:54;;;;;;;;;;;;;;;;;;5073439;28;19959;-66
2023/06/15 08:41:20;;;;;;;;;;;;;;;;;;5072700;28;19956;-65
2023/06/15 08:43:46;;;;;;;;;;;;;;;;;;5072365;28;20453;-66
2023/06/15 08:46:12;;;;;;;;;;;;;;;;;;5071015;28;19932;-66
2023/06/15 08:48:38;;;;;;;;;;;;;;;;;;5070760;28;19927;-65
2023/06/15 08:51:03;;;;;;;;;;;;;;;;;;5054847;28;19920;-66
2023/06/15 08:53:29;;;;;;;;;;;;;;;;;;5072108;28;19924;-65
2023/06/15 08:55:55;;;;;;;;;;;;;;;;;;5068476;28;20342;-66
2023/06/15 08:58:21;;;;;;;;;;;;;;;;;;5055045;28;20285;-66
2023/06/15 09:00:47;;;;;;;;;;;;;;;;;;5072640;28;19921;-65
2023/06/15 09:03:13;;;;;;;;;;;;;;;;;;5067426;28;19954;-65
2023/06/15 09:05:39;;;;;;;;;;;;;;;;;;5072371;28;19924;-66
2023/06/15 09:08:05;;;;;;;;;;;;;;;;;;5072587;28;19932;-65
2023/06/15 09:10:31;;;;;;;;;;;;;;;;;;5072357;28;20003;-65
2023/06/15 09:12:57;;;;;;;;;;;;;;;;;;5072218;28;20003;-65
2023/06/15 09:15:23;;;;;;;;;;;;;;;;;;5072282;28;20016;-65
2023/06/15 09:17:49;;;;;;;;;;;;;;;;;;5068983;28;20250;-63
2023/06/15 09:20:15;;;;;;;;;;;;;;;;;;5072018;28;19928;-63
2023/06/15 09:22:42;;;;;;;;;;;;;;;;;;5054354;28;19927;-62
2023/06/15 09:25:08;;;;;;;;;;;;;;;;;;5053953;28;20258;-63
2023/06/15 09:27:34;;;;;;;;;;;;;;;;;;5071926;28;19931;-63
2023/06/15 09:30:01;;;;;;;;;;;;;;;;;;5072432;28;19924;-63
2023/06/15 09:32:27;;;;;;;;;;;;;;;;;;5059731;28;19929;-63
2023/06/15 09:34:53;;;;;;;;;;;;;;;;;;5034181;28;20012;-62
2023/06/15 09:37:19;;;;;;;;;;;;;;;;;;5054230;28;19924;-62
2023/06/15 09:39:45;;;;;;;;;;;;;;;;;;5053600;28;19928;-62
2023/06/15 09:42:11;;;;;;;;;;;;;;;;;;5053828;28;19924;-63
2023/06/15 09:44:40;;;;;;;;;;;;;;;;;;5071534;28;19920;-63
2023/06/15 09:47:07;;;;;;;;;;;;;;;;;;5068008;28;19924;-63
2023/06/15 09:49:33;;;;;;;;;;;;;;;;;;5056356;28;20043;-63
2023/06/15 09:52:00;;;;;;;;;;;;;;;;;;5052890;28;20007;-63
2023/06/15 09:54:28;;;;;;;;;;;;;;;;;;5055782;28;19928;-63
2023/06/15 09:56:54;;;;;;;;;;;;;;;;;;5053591;28;19924;-64
2023/06/15 09:59:20;;;;;;;;;;;;;;;;;;5071689;28;19927;-63
2023/06/15 10:01:46;;;;;;;;;;;;;;;;;;5052221;28;20377;-64
2023/06/15 10:04:12;;;;;;;;;;;;;;;;;;5053692;28;20021;-64
2023/06/15 10:06:39;;;;;;;;;;;;;;;;;;5071398;28;19959;-64
2023/06/15 10:09:06;;;;;;;;;;;;;;;;;;5071982;28;20306;-64
2023/06/15 10:11:32;;;;;;;;;;;;;;;;;;5036566;28;20403;-64
2023/06/15 10:13:58;;;;;;;;;;;;;;;;;;5069446;28;19931;-64
2023/06/15 10:16:24;;;;;;;;;;;;;;;;;;5071472;28;19932;-63
2023/06/15 10:18:50;;;;;;;;;;;;;;;;;;5052896;28;19920;-63
2023/06/15 10:21:16;;;;;;;;;;;;;;;;;;5070839;28;19982;-63
2023/06/15 10:23:42;;;;;;;;;;;;;;;;;;5071158;28;20437;-63
2023/06/15 10:26:08;;;;;;;;;;;;;;;;;;5070819;28;19982;-63
2023/06/15 10:28:34;;;;;;;;;;;;;;;;;;5067498;28;19920;-64
2023/06/15 10:31:02;;;;;;;;;;;;;;;;;;5065961;28;21344;-63
2023/06/15 10:33:28;;;;;;;;;;;;;;;;;;5053240;28;20011;-64
2023/06/15 10:35:54;;;;;;;;;;;;;;;;;;5071184;28;20045;-63
2023/06/15 10:38:20;;;;;;;;;;;;;;;;;;5071242;28;19924;-63
2023/06/15 10:40:47;;;;;;;;;;;;;;;;;;5071553;28;19947;-63
2023/06/15 10:43:13;;;;;;;;;;;;;;;;;;5069537;28;19930;-62
2023/06/15 10:45:39;;;;;;;;;;;;;;;;;;5052598;28;19920;-63
2023/06/15 10:48:05;;;;;;;;;;;;;;;;;;5069621;28;19942;-63
2023/06/15 10:50:31;;;;;;;;;;;;;;;;;;5055267;28;19958;-63
2023/06/15 10:52:57;;;;;;;;;;;;;;;;;;5047248;28;20404;-63
2023/06/15 10:55:26;;;;;;;;;;;;;;;;;;5074701;28;20022;-63
2023/06/15 10:57:52;;;;;;;;;;;;;;;;;;5067060;28;19920;-63
2023/06/15 11:00:18;;;;;;;;;;;;;;;;;;5055184;28;20024;-63
2023/06/15 11:02:44;;;;;;;;;;;;;;;;;;5071080;28;19924;-63
2023/06/15 11:05:09;;;;;;;;;;;;;;;;;;5074583;28;19927;-64
2023/06/15 11:07:35;;;;;;;;;;;;;;;;;;5074698;28;20270;-63
2023/06/15 11:10:01;;;;;;;;;;;;;;;;;;5074640;28;19946;-63
2023/06/15 11:12:27;;;;;;;;;;;;;;;;;;5053053;28;19932;-63
2023/06/15 11:14:53;;;;;;;;;;;;;;;;;;5056671;28;19963;-63
2023/06/15 11:17:20;;;;;;;;;;;;;;;;;;5074811;28;19931;-62
2023/06/15 11:19:46;;;;;;;;;;;;;;;;;;5072805;28;20451;-63
2023/06/15 11:22:12;;;;;;;;;;;;;;;;;;5074451;28;19920;-63
2023/06/15 11:24:38;;;;;;;;;;;;;;;;;;5056457;28;20309;-63
2023/06/15 11:27:04;;;;;;;;;;;;;;;;;;5071476;28;19928;-63
2023/06/15 11:29:33;;;;;;;;;;;;;;;;;;5074356;28;19924;-62
2023/06/15 11:31:59;;;;;;;;;;;;;;;;;;5074354;28;20340;-63
2023/06/15 11:34:25;;;;;;;;;;;;;;;;;;5074468;28;19924;-63
2023/06/15 11:36:51;;;;;;;;;;;;;;;;;;5073977;28;19920;-63
2023/06/15 11:39:17;;;;;;;;;;;;;;;;;;5055979;28;19921;-62
2023/06/15 11:41:46;;;;;;;;;;;;;;;;;;5061717;28;19920;-62
2023/06/15 11:44:11;;;;;;;;;;;;;;;;;;5066467;28;20441;-63
2023/06/15 11:46:37;;;;;;;;;;;;;;;;;;5073611;28;20020;-62
2023/06/15 11:49:06;;;;;;;;;;;;;;;;;;5070635;28;19974;-63
2023/06/15 11:51:32;;;;;;;;;;;;;;;;;;5055901;28;20333;-63
2023/06/15 11:53:58;;;;;;;;;;;;;;;;;;5073895;28;19924;-62
2023/06/15 11:56:24;;;;;;;;;;;;;;;;;;5057859;28;19932;-63
2023/06/15 11:58:50;;;;;;;;;;;;;;;;;;5053554;28;20019;-63
2023/06/15 12:01:16;;;;;;;;;;;;;;;;;;5066146;28;20007;-62
2023/06/15 12:03:42;;;;;;;;;;;;;;;;;;5073882;28;20335;-62
2023/06/15 12:06:08;;;;;;;;;;;;;;;;;;5050038;28;20521;-63
2023/06/15 12:08:34;;;;;;;;;;;;;;;;;;5047921;28;19921;-62
2023/06/15 12:11:00;;;;;;;;;;;;;;;;;;5066832;28;19921;-62
2023/06/15 12:13:26;;;;;;;;;;;;;;;;;;5072827;28;19933;-62
2023/06/15 12:15:53;;;;;;;;;;;;;;;;;;5055365;28;20499;-62
2023/06/15 12:18:19;;;;;;;;;;;;;;;;;;5073155;28;19925;-63
2023/06/15 12:20:45;;;;;;;;;;;;;;;;;;5071553;28;19955;-63
2023/06/15 12:23:10;;;;;;;;;;;;;;;;;;5073378;28;20380;-62
2023/06/15 12:25:36;;;;;;;;;;;;;;;;;;5071780;28;19932;-62
2023/06/15 12:28:02;;;;;;;;;;;;;;;;;;5072635;28;19928;-63
2023/06/15 12:30:28;;;;;;;;;;;;;;;;;;5053749;28;19931;-63
2023/06/15 12:32:54;;;;;;;;;;;;;;;;;;5073295;28;20269;-63
2023/06/15 12:35:20;;;;;;;;;;;;;;;;;;5073214;28;19928;-63
2023/06/15 12:37:48;;;;;;;;;;;;;;;;;;5071230;28;19991;-63
2023/06/15 12:40:14;;;;;;;;;;;;;;;;;;5067320;28;19921;-61
2023/06/15 12:42:40;;;;;;;;;;;;;;;;;;5059194;28;19929;-61
2023/06/15 12:45:07;;;;;;;;;;;;;;;;;;5061826;28;19931;-60
2023/06/15 12:47:33;;;;;;;;;;;;;;;;;;5065198;28;19929;-61
2023/06/15 12:49:59;;;;;;;;;;;;;;;;;;5047591;28;19931;-61
2023/06/15 12:52:27;;;;;;;;;;;;;;;;;;5059006;28;19939;-60
2023/06/15 12:54:53;;;;;;;;;;;;;;;;;;5066293;28;19920;-60
2023/06/15 12:57:18;;;;;;;;;;;;;;;;;;5072760;28;19966;-60
2023/06/15 12:59:45;;;;;;;;;;;;;;;;;;5072101;28;19987;-60
2023/06/15 13:02:11;;;;;;;;;;;;;;;;;;5067035;28;19932;-61
2023/06/15 13:04:37;;;;;;;;;;;;;;;;;;5054520;28;19947;-60
2023/06/15 13:07:03;;;;;;;;;;;;;;;;;;5072250;28;19979;-60
2023/06/15 13:09:28;;;;;;;;;;;;;;;;;;5070436;28;20353;-60
2023/06/15 13:11:54;;;;;;;;;;;;;;;;;;5071392;28;19928;-60
2023/06/15 13:14:20;;;;;;;;;;;;;;;;;;5046091;28;19925;-61
2023/06/15 13:16:46;;;;;;;;;;;;;;;;;;5062664;28;19925;-61
2023/06/15 13:19:13;;;;;;;;;;;;;;;;;;5060565;28;19929;-60
2023/06/15 13:21:38;;;;;;;;;;;;;;;;;;5063597;28;20361;-59
2023/06/15 13:24:04;;;;;;;;;;;;;;;;;;5068643;28;19999;-59
2023/06/15 13:26:30;;;;;;;;;;;;;;;;;;5068238;28;19943;-59
2023/06/15 13:28:56;;;;;;;;;;;;;;;;;;5069137;28;19999;-59
2023/06/15 13:31:22;;;;;;;;;;;;;;;;;;5071296;28;19920;-59
2023/06/15 13:33:48;;;;;;;;;;;;;;;;;;5071709;28;20054;-59
2023/06/15 13:36:14;;;;;;;;;;;;;;;;;;5069029;28;19924;-59
2023/06/15 13:38:40;;;;;;;;;;;;;;;;;;5066403;28;19929;-59
2023/06/15 13:41:06;;;;;;;;;;;;;;;;;;5066075;28;20401;-59
2023/06/15 13:43:32;;;;;;;;;;;;;;;;;;5052312;28;20045;-59
2023/06/15 13:45:58;;;;;;;;;;;;;;;;;;5046321;28;19924;-58
2023/06/15 13:48:24;;;;;;;;;;;;;;;;;;5067228;28;20019;-58
2023/06/15 13:50:50;;;;;;;;;;;;;;;;;;5047146;28;20370;-58
2023/06/15 13:53:16;;;;;;;;;;;;;;;;;;5047624;28;19978;-59
2023/06/15 13:55:43;;;;;;;;;;;;;;;;;;5062391;28;19924;-59
2023/06/15 13:58:09;;;;;;;;;;;;;;;;;;5071815;28;20460;-60
2023/06/15 14:00:35;;;;;;;;;;;;;;;;;;5060597;28;20030;-60
2023/06/15 14:03:04;;;;;;;;;;;;;;;;;;5069697;28;20008;-59
2023/06/15 14:05:30;;;;;;;;;;;;;;;;;;5069675;28;20300;-59
2023/06/15 14:07:56;;;;;;;;;;;;;;;;;;5069498;28;19927;-59
2023/06/15 14:10:22;;;;;;;;;;;;;;;;;;5049428;28;19932;-59
2023/06/15 14:12:48;;;;;;;;;;;;;;;;;;5066545;28;20426;-59
2023/06/15 14:15:15;;;;;;;;;;;;;;;;;;5065538;28;19999;-59
2023/06/15 14:17:41;;;;;;;;;;;;;;;;;;5069645;28;19951;-59
2023/06/15 14:20:07;;;;;;;;;;;;;;;;;;5069987;28;19951;-59
2023/06/15 14:22:33;;;;;;;;;;;;;;;;;;5072722;28;19925;-59
2023/06/15 14:24:58;;;;;;;;;;;;;;;;;;5052849;28;19947;-58
2023/06/15 14:27:24;;;;;;;;;;;;;;;;;;5073037;28;19924;-59
2023/06/15 14:29:50;;;;;;;;;;;;;;;;;;5069980;28;19927;-59
2023/06/15 14:32:16;;;;;;;;;;;;;;;;;;5070695;28;19935;-59
2023/06/15 14:34:43;;;;;;;;;;;;;;;;;;5067777;28;20340;-59
2023/06/15 14:37:09;;;;;;;;;;;;;;;;;;5057322;28;19921;-59
2023/06/15 14:39:35;;;;;;;;;;;;;;;;;;5073417;28;20286;-59
2023/06/15 14:42:01;;;;;;;;;;;;;;;;;;5075395;28;19925;-59
2023/06/15 14:44:27;;;;;;;;;;;;;;;;;;5053269;28;20448;-59
2023/06/15 14:46:53;;;;;;;;;;;;;;;;;;5070002;28;20068;-59
2023/06/15 14:49:19;;;;;;;;;;;;;;;;;;5060398;28;19925;-59
2023/06/15 14:51:45;;;;;;;;;;;;;;;;;;5070212;28;19927;-59
2023/06/15 14:54:11;;;;;;;;;;;;;;;;;;5064902;28;19924;-59
2023/06/15 14:56:38;;;;;;;;;;;;;;;;;;5065115;28;19921;-59
2023/06/15 14:59:04;;;;;;;;;;;;;;;;;;5073176;28;20388;-59
2023/06/15 15:01:30;;;;;;;;;;;;;;;;;;5072028;28;19920;-59
2023/06/15 15:03:56;;;;;;;;;;;;;;;;;;5057403;28;19928;-59
2023/06/15 15:06:22;;;;;;;;;;;;;;;;;;5069034;28;20055;-59
2023/06/15 15:08:48;;;;;;;;;;;;;;;;;;5063210;28;20003;-58
2023/06/15 15:11:14;;;;;;;;;;;;;;;;;;5066478;28;19928;-59
2023/06/15 15:13:40;;;;;;;;;;;;;;;;;;5068190;28;19940;-59
2023/06/15 15:16:06;;;;;;;;;;;;;;;;;;5071189;28;19928;-59
2023/06/15 15:18:32;;;;;;;;;;;;;;;;;;5070553;28;19978;-59
2023/06/15 15:20:59;;;;;;;;;;;;;;;;;;5074815;28;19964;-59
2023/06/15 15:23:26;;;;;;;;;;;;;;;;;;5073798;28;19920;-58
2023/06/15 15:25:51;;;;;;;;;;;;;;;;;;5072350;28;20300;-59
2023/06/15 15:28:17;;;;;;;;;;;;;;;;;;5070045;28;19920;-58
2023/06/15 15:30:43;;;;;;;;;;;;;;;;;;5043411;28;19921;-59
2023/06/15 15:33:09;;;;;;;;;;;;;;;;;;5070782;28;20285;-59
2023/06/15 15:35:35;;;;;;;;;;;;;;;;;;5068603;28;19932;-59
2023/06/15 15:38:01;;;;;;;;;;;;;;;;;;5051685;28;20061;-59
2023/06/15 15:40:27;;;;;;;;;;;;;;;;;;5054572;28;19973;-61
2023/06/15 15:42:53;;;;;;;;;;;;;;;;;;5054135;28;19928;-61
2023/06/15 15:45:19;;;;;;;;;;;;;;;;;;5072191;28;19924;-61
2023/06/15 15:47:45;;;;;;;;;;;;;;;;;;5072315;28;20334;-61
2023/06/15 15:50:11;;;;;;;;;;;;;;;;;;5064323;28;19921;-61
2023/06/15 15:52:37;;;;;;;;;;;;;;;;;;5069269;28;19932;-61
2023/06/15 15:55:03;;;;;;;;;;;;;;;;;;5073890;28;19921;-61
2023/06/15 15:57:29;;;;;;;;;;;;;;;;;;5073866;28;19966;-62
2023/06/15 15:59:55;;;;;;;;;;;;;;;;;;5072256;28;19968;-62
2023/06/15 16:02:21;;;;;;;;;;;;;;;;;;5073286;28;19931;-62
2023/06/15 16:04:47;;;;;;;;;;;;;;;;;;5073794;28;19927;-61
2023/06/15 16:07:13;;;;;;;;;;;;;;;;;;5033637;28;20497;-62
2023/06/15 16:09:39;;;;;;;;;;;;;;;;;;5053013;28;19971;-61
2023/06/15 16:12:05;;;;;;;;;;;;;;;;;;5053457;28;19979;-62
2023/06/15 16:14:31;;;;;;;;;;;;;;;;;;5052504;28;19921;-60
2023/06/15 16:16:57;;;;;;;;;;;;;;;;;;5053286;28;19920;-61
2023/06/15 16:19:23;;;;;;;;;;;;;;;;;;5053310;28;19931;-60
2023/06/15 16:21:49;;;;;;;;;;;;;;;;;;5053719;28;19921;-60
2023/06/15 16:24:15;;;;;;;;;;;;;;;;;;5051921;28;20008;-60
2023/06/15 16:26:41;;;;;;;;;;;;;;;;;;5053032;28;19920;-60
2023/06/15 16:29:07;;;;;;;;;;;;;;;;;;5051509;28;19936;-60
2023/06/15 16:31:32;;;;;;;;;;;;;;;;;;5044447;28;19920;-60
2023/06/15 16:33:59;;;;;;;;;;;;;;;;;;5043958;28;19939;-61
2023/06/15 16:36:25;;;;;;;;;;;;;;;;;;5049053;28;19964;-61
2023/06/15 16:38:51;;;;;;;;;;;;;;;;;;5045534;28;19992;-61